sensor_id;sensor_type;location;lat;lon;timestamp;noise_LAeq;noise_LA_min;noise_LA_max;noise_LA01;noise_LA95
66274;Laerm;58450;52.150;4.466;2024-01-15T00:00:44;43.01;36.57;57.42;;
66274;Laerm;58450;52.150;4.466;2024-01-15T00:03:12;51.49;38.17;66.62;;
66274;Laerm;58450;52.150;4.466;2024-01-15T00:05:43;44.50;37.23;62.58;;
66274;Laerm;58450;52.150;4.466;2024-01-15T00:08:11;46.37;37.93;68.54;;
66274;Laerm;58450;52.150;4.466;2024-01-15T00:10:38;46.37;39.44;68.10;;
66274;Laerm;58450;52.150;4.466;2024-01-15T00:13:06;43.83;38.24;56.42;;
66274;Laerm;58450;52.150;4.466;2024-01-15T00:15:34;50.67;38.87;73.36;;
66274;Laerm;58450;52.150;4.466;2024-01-15T00:18:01;54.47;38.93;71.30;;
66274;Laerm;58450;52.150;4.466;2024-01-15T00:20:29;51.80;37.64;68.94;;
66274;Laerm;58450;52.150;4.466;2024-01-15T00:22:58;46.99;35.97;63.04;;
66274;Laerm;58450;52.150;4.466;2024-01-15T00:25:25;40.60;36.44;53.64;;
66274;Laerm;58450;52.150;4.466;2024-01-15T00:27:52;39.26;35.28;47.02;;
66274;Laerm;58450;52.150;4.466;2024-01-15T00:30:20;41.13;35.93;53.13;;
66274;Laerm;58450;52.150;4.466;2024-01-15T00:32:47;38.93;35.11;47.81;;
66274;Laerm;58450;52.150;4.466;2024-01-15T00:35:15;40.96;35.02;54.84;;
66274;Laerm;58450;52.150;4.466;2024-01-15T00:37:43;41.15;35.32;60.79;;
66274;Laerm;58450;52.150;4.466;2024-01-15T00:40:12;43.87;36.33;57.13;;
66274;Laerm;58450;52.150;4.466;2024-01-15T00:42:39;44.70;37.35;59.23;;
66274;Laerm;58450;52.150;4.466;2024-01-15T00:45:07;51.29;41.29;63.32;;
66274;Laerm;58450;52.150;4.466;2024-01-15T00:47:35;47.17;39.90;61.16;;
66274;Laerm;58450;52.150;4.466;2024-01-15T00:50:03;43.61;37.56;56.21;;
66274;Laerm;58450;52.150;4.466;2024-01-15T00:52:30;41.99;36.78;60.58;;
66274;Laerm;58450;52.150;4.466;2024-01-15T00:54:58;43.61;37.56;61.54;;
66274;Laerm;58450;52.150;4.466;2024-01-15T00:57:27;44.56;38.41;62.85;;
66274;Laerm;58450;52.150;4.466;2024-01-15T00:59:54;47.15;38.31;68.82;;
66274;Laerm;58450;52.150;4.466;2024-01-15T01:02:22;50.97;39.96;75.83;;
66274;Laerm;58450;52.150;4.466;2024-01-15T01:04:49;54.42;43.32;72.45;;
66274;Laerm;58450;52.150;4.466;2024-01-15T01:07:16;51.14;40.82;71.92;;
66274;Laerm;58450;52.150;4.466;2024-01-15T01:09:45;52.16;43.81;72.60;;
66274;Laerm;58450;52.150;4.466;2024-01-15T01:12:14;51.73;41.60;69.15;;
66274;Laerm;58450;52.150;4.466;2024-01-15T01:14:43;46.44;39.43;63.62;;
66274;Laerm;58450;52.150;4.466;2024-01-15T01:17:10;43.75;38.45;57.72;;
66274;Laerm;58450;52.150;4.466;2024-01-15T01:19:38;48.28;40.24;65.72;;
66274;Laerm;58450;52.150;4.466;2024-01-15T01:22:05;43.03;37.49;55.30;;
66274;Laerm;58450;52.150;4.466;2024-01-15T01:24:33;41.87;37.10;54.39;;
66274;Laerm;58450;52.150;4.466;2024-01-15T01:27:00;52.58;37.43;68.90;;
66274;Laerm;58450;52.150;4.466;2024-01-15T01:29:28;42.06;36.54;58.09;;
66274;Laerm;58450;52.150;4.466;2024-01-15T01:31:57;45.32;35.69;63.98;;
66274;Laerm;58450;52.150;4.466;2024-01-15T01:34:24;43.82;37.44;59.77;;
66274;Laerm;58450;52.150;4.466;2024-01-15T01:36:51;43.63;36.74;60.10;;
66274;Laerm;58450;52.150;4.466;2024-01-15T01:39:19;48.00;38.03;64.92;;
66274;Laerm;58450;52.150;4.466;2024-01-15T01:41:46;52.81;37.98;68.27;;
66274;Laerm;58450;52.150;4.466;2024-01-15T01:44:14;47.65;36.65;65.99;;
66274;Laerm;58450;52.150;4.466;2024-01-15T01:46:41;48.25;36.97;67.32;;
66274;Laerm;58450;52.150;4.466;2024-01-15T01:49:10;50.53;36.58;72.73;;
66274;Laerm;58450;52.150;4.466;2024-01-15T01:51:38;49.10;36.13;73.91;;
66274;Laerm;58450;52.150;4.466;2024-01-15T01:54:08;42.40;36.20;60.92;;
66274;Laerm;58450;52.150;4.466;2024-01-15T01:56:37;42.30;36.31;53.70;;
66274;Laerm;58450;52.150;4.466;2024-01-15T01:59:07;44.04;37.15;59.91;;
66274;Laerm;58450;52.150;4.466;2024-01-15T02:01:36;49.72;37.62;72.80;;
66274;Laerm;58450;52.150;4.466;2024-01-15T02:04:04;48.49;37.72;69.48;;
66274;Laerm;58450;52.150;4.466;2024-01-15T02:06:33;44.21;37.27;60.58;;
66274;Laerm;58450;52.150;4.466;2024-01-15T02:09:03;43.65;36.70;59.78;;
66274;Laerm;58450;52.150;4.466;2024-01-15T02:11:31;43.88;36.66;61.05;;
66274;Laerm;58450;52.150;4.466;2024-01-15T02:13:59;43.21;35.06;56.56;;
66274;Laerm;58450;52.150;4.466;2024-01-15T02:16:26;44.33;35.44;64.58;;
66274;Laerm;58450;52.150;4.466;2024-01-15T02:18:54;44.46;36.84;68.66;;
66274;Laerm;58450;52.150;4.466;2024-01-15T02:21:21;43.71;37.41;58.07;;
66274;Laerm;58450;52.150;4.466;2024-01-15T02:23:50;43.82;37.35;61.26;;
66274;Laerm;58450;52.150;4.466;2024-01-15T02:26:18;53.18;37.85;72.52;;
66274;Laerm;58450;52.150;4.466;2024-01-15T02:28:45;46.42;37.27;60.86;;
66274;Laerm;58450;52.150;4.466;2024-01-15T02:31:13;46.02;37.56;63.23;;
66274;Laerm;58450;52.150;4.466;2024-01-15T02:33:40;46.43;37.31;62.20;;
66274;Laerm;58450;52.150;4.466;2024-01-15T02:36:09;42.28;36.24;60.84;;
66274;Laerm;58450;52.150;4.466;2024-01-15T02:38:36;42.93;36.41;57.19;;
66274;Laerm;58450;52.150;4.466;2024-01-15T02:41:05;41.98;36.34;57.79;;
66274;Laerm;58450;52.150;4.466;2024-01-15T02:43:33;49.77;35.86;63.70;;
66274;Laerm;58450;52.150;4.466;2024-01-15T02:46:00;39.99;35.96;51.65;;
66274;Laerm;58450;52.150;4.466;2024-01-15T02:48:28;40.49;36.25;50.36;;
66274;Laerm;58450;52.150;4.466;2024-01-15T02:50:55;43.00;37.02;63.31;;
66274;Laerm;58450;52.150;4.466;2024-01-15T02:53:23;43.81;36.67;58.52;;
66274;Laerm;58450;52.150;4.466;2024-01-15T02:55:50;44.55;37.27;62.44;;
66274;Laerm;58450;52.150;4.466;2024-01-15T02:58:19;44.32;38.30;57.24;;
66274;Laerm;58450;52.150;4.466;2024-01-15T03:00:47;44.77;38.79;57.80;;
66274;Laerm;58450;52.150;4.466;2024-01-15T03:03:14;42.77;35.92;61.15;;
66274;Laerm;58450;52.150;4.466;2024-01-15T03:05:42;43.15;36.84;59.91;;
66274;Laerm;58450;52.150;4.466;2024-01-15T03:08:09;44.63;37.60;63.61;;
66274;Laerm;58450;52.150;4.466;2024-01-15T03:10:37;58.65;38.23;80.75;;
66274;Laerm;58450;52.150;4.466;2024-01-15T03:13:04;53.62;46.78;69.54;;
66274;Laerm;58450;52.150;4.466;2024-01-15T03:15:33;55.79;41.84;74.78;;
66274;Laerm;58450;52.150;4.466;2024-01-15T03:18:00;48.12;41.99;65.98;;
66274;Laerm;58450;52.150;4.466;2024-01-15T03:20:28;47.70;41.71;62.76;;
66274;Laerm;58450;52.150;4.466;2024-01-15T03:22:55;48.35;41.97;65.53;;
66274;Laerm;58450;52.150;4.466;2024-01-15T03:25:23;51.81;42.38;70.73;;
66274;Laerm;58450;52.150;4.466;2024-01-15T03:27:50;54.09;40.98;70.21;;
66274;Laerm;58450;52.150;4.466;2024-01-15T03:30:18;49.26;41.27;70.38;;
66274;Laerm;58450;52.150;4.466;2024-01-15T03:32:47;44.58;37.89;58.08;;
66274;Laerm;58450;52.150;4.466;2024-01-15T03:35:16;46.54;39.88;54.53;;
66274;Laerm;58450;52.150;4.466;2024-01-15T03:37:43;43.66;37.25;52.94;;
66274;Laerm;58450;52.150;4.466;2024-01-15T03:40:12;52.56;37.25;68.09;;
66274;Laerm;58450;52.150;4.466;2024-01-15T03:42:39;43.04;36.46;57.12;;
66274;Laerm;58450;52.150;4.466;2024-01-15T03:45:07;43.58;37.41;61.90;;
66274;Laerm;58450;52.150;4.466;2024-01-15T03:47:34;47.84;38.93;65.24;;
66274;Laerm;58450;52.150;4.466;2024-01-15T03:50:04;48.75;39.24;63.39;;
66274;Laerm;58450;52.150;4.466;2024-01-15T03:52:32;47.51;37.06;65.08;;
66274;Laerm;58450;52.150;4.466;2024-01-15T03:54:59;43.46;36.80;59.88;;
66274;Laerm;58450;52.150;4.466;2024-01-15T03:57:27;49.72;38.66;65.22;;
66274;Laerm;58450;52.150;4.466;2024-01-15T03:59:54;44.45;38.33;61.85;;
66274;Laerm;58450;52.150;4.466;2024-01-15T04:02:22;42.92;37.09;59.67;;
66274;Laerm;58450;52.150;4.466;2024-01-15T04:04:49;42.39;37.41;52.67;;
66274;Laerm;58450;52.150;4.466;2024-01-15T04:07:18;42.82;38.32;53.18;;
66274;Laerm;58450;52.150;4.466;2024-01-15T04:09:45;43.39;38.54;52.33;;
66274;Laerm;58450;52.150;4.466;2024-01-15T04:12:13;45.31;38.97;55.78;;
66274;Laerm;58450;52.150;4.466;2024-01-15T04:14:40;44.76;38.83;57.25;;
66274;Laerm;58450;52.150;4.466;2024-01-15T04:17:08;42.13;37.24;53.63;;
66274;Laerm;58450;52.150;4.466;2024-01-15T04:19:35;42.66;37.54;52.34;;
66274;Laerm;58450;52.150;4.466;2024-01-15T04:22:03;43.74;38.59;55.03;;
66274;Laerm;58450;52.150;4.466;2024-01-15T04:24:32;43.73;37.46;60.71;;
66274;Laerm;58450;52.150;4.466;2024-01-15T04:27:00;48.21;39.72;62.08;;
66274;Laerm;58450;52.150;4.466;2024-01-15T04:29:27;55.10;41.17;72.79;;
66274;Laerm;58450;52.150;4.466;2024-01-15T04:31:55;49.62;41.52;65.32;;
66274;Laerm;58450;52.150;4.466;2024-01-15T04:34:22;49.59;40.88;70.02;;
66274;Laerm;58450;52.150;4.466;2024-01-15T04:36:50;49.37;40.61;65.64;;
66274;Laerm;58450;52.150;4.466;2024-01-15T04:39:17;50.17;40.65;64.27;;
66274;Laerm;58450;52.150;4.466;2024-01-15T04:41:46;45.04;39.49;57.48;;
66274;Laerm;58450;52.150;4.466;2024-01-15T04:44:13;52.17;39.49;67.14;;
66274;Laerm;58450;52.150;4.466;2024-01-15T04:46:41;43.63;39.05;52.75;;
66274;Laerm;58450;52.150;4.466;2024-01-15T04:49:10;44.30;38.81;56.26;;
66274;Laerm;58450;52.150;4.466;2024-01-15T04:51:37;45.43;39.08;54.20;;
66274;Laerm;58450;52.150;4.466;2024-01-15T04:54:05;50.00;39.66;65.71;;
66274;Laerm;58450;52.150;4.466;2024-01-15T04:56:32;49.06;40.35;68.74;;
66274;Laerm;58450;52.150;4.466;2024-01-15T04:59:01;45.74;39.45;59.99;;
66274;Laerm;58450;52.150;4.466;2024-01-15T05:01:31;54.38;40.15;70.91;;
66274;Laerm;58450;52.150;4.466;2024-01-15T05:03:59;46.73;41.56;57.12;;
66274;Laerm;58450;52.150;4.466;2024-01-15T05:06:26;46.55;40.08;62.02;;
66274;Laerm;58450;52.150;4.466;2024-01-15T05:08:54;46.35;41.47;59.67;;
66274;Laerm;58450;52.150;4.466;2024-01-15T05:11:22;53.68;41.56;66.44;;
66274;Laerm;58450;52.150;4.466;2024-01-15T05:13:49;53.51;42.74;66.60;;
66274;Laerm;58450;52.150;4.466;2024-01-15T05:16:18;52.54;42.64;64.15;;
66274;Laerm;58450;52.150;4.466;2024-01-15T05:18:45;54.00;42.18;68.79;;
66274;Laerm;58450;52.150;4.466;2024-01-15T05:21:13;48.39;43.13;60.84;;
66274;Laerm;58450;52.150;4.466;2024-01-15T05:23:40;55.99;43.25;74.53;;
66274;Laerm;58450;52.150;4.466;2024-01-15T05:26:08;51.55;44.28;62.70;;
66274;Laerm;58450;52.150;4.466;2024-01-15T05:28:36;53.85;43.96;68.34;;
66274;Laerm;58450;52.150;4.466;2024-01-15T05:31:03;49.65;44.39;64.19;;
66274;Laerm;58450;52.150;4.466;2024-01-15T05:33:32;53.35;44.42;74.42;;
66274;Laerm;58450;52.150;4.466;2024-01-15T05:36:00;52.73;44.16;69.66;;
66274;Laerm;58450;52.150;4.466;2024-01-15T05:38:27;51.44;44.84;66.44;;
66274;Laerm;58450;52.150;4.466;2024-01-15T05:40:55;52.06;44.17;73.33;;
66274;Laerm;58450;52.150;4.466;2024-01-15T05:43:22;55.29;44.59;72.66;;
66274;Laerm;58450;52.150;4.466;2024-01-15T05:45:49;51.48;45.15;67.24;;
66274;Laerm;58450;52.150;4.466;2024-01-15T05:48:17;56.32;45.27;69.54;;
66274;Laerm;58450;52.150;4.466;2024-01-15T05:50:46;50.53;44.53;66.03;;
66274;Laerm;58450;52.150;4.466;2024-01-15T05:53:13;55.71;44.38;72.23;;
66274;Laerm;58450;52.150;4.466;2024-01-15T05:55:41;53.04;44.89;73.06;;
66274;Laerm;58450;52.150;4.466;2024-01-15T05:58:08;54.94;45.12;74.32;;
66274;Laerm;58450;52.150;4.466;2024-01-15T06:00:36;54.04;46.29;70.64;;
66274;Laerm;58450;52.150;4.466;2024-01-15T06:03:04;55.36;45.31;68.79;;
66274;Laerm;58450;52.150;4.466;2024-01-15T06:05:32;51.90;46.35;63.56;;
66274;Laerm;58450;52.150;4.466;2024-01-15T06:08:00;52.20;45.78;66.50;;
66274;Laerm;58450;52.150;4.466;2024-01-15T06:10:28;54.93;46.61;71.87;;
66274;Laerm;58450;52.150;4.466;2024-01-15T06:12:55;51.57;45.60;64.03;;
66274;Laerm;58450;52.150;4.466;2024-01-15T06:15:22;59.31;48.42;75.57;;
66274;Laerm;58450;52.150;4.466;2024-01-15T06:17:50;60.03;51.77;74.85;;
66274;Laerm;58450;52.150;4.466;2024-01-15T06:20:17;57.08;48.67;72.47;;
66274;Laerm;58450;52.150;4.466;2024-01-15T06:22:45;54.92;48.68;69.17;;
66274;Laerm;58450;52.150;4.466;2024-01-15T06:25:14;55.96;47.45;69.34;;
66274;Laerm;58450;52.150;4.466;2024-01-15T06:27:41;54.33;48.00;67.33;;
66274;Laerm;58450;52.150;4.466;2024-01-15T06:30:10;55.58;48.12;68.94;;
66274;Laerm;58450;52.150;4.466;2024-01-15T06:32:38;52.13;47.35;66.65;;
66274;Laerm;58450;52.150;4.466;2024-01-15T06:35:07;55.19;47.48;68.19;;
66274;Laerm;58450;52.150;4.466;2024-01-15T06:37:36;56.16;47.63;72.13;;
66274;Laerm;58450;52.150;4.466;2024-01-15T06:40:05;54.06;48.03;64.71;;
66274;Laerm;58450;52.150;4.466;2024-01-15T06:42:34;56.80;47.26;71.87;;
66274;Laerm;58450;52.150;4.466;2024-01-15T06:45:02;55.68;46.68;73.77;;
66274;Laerm;58450;52.150;4.466;2024-01-15T06:47:29;59.98;50.21;76.92;;
66274;Laerm;58450;52.150;4.466;2024-01-15T06:49:58;59.08;50.36;73.69;;
66274;Laerm;58450;52.150;4.466;2024-01-15T06:52:26;55.61;50.65;67.99;;
66274;Laerm;58450;52.150;4.466;2024-01-15T06:54:53;55.17;50.12;65.41;;
66274;Laerm;58450;52.150;4.466;2024-01-15T06:57:20;55.75;50.95;64.06;;
66274;Laerm;58450;52.150;4.466;2024-01-15T06:59:49;59.33;50.22;72.45;;
66274;Laerm;58450;52.150;4.466;2024-01-15T07:02:17;58.87;48.83;86.12;;
66274;Laerm;58450;52.150;4.466;2024-01-15T07:04:44;59.46;48.56;80.28;;
66274;Laerm;58450;52.150;4.466;2024-01-15T07:07:12;53.69;49.58;61.54;;
66274;Laerm;58450;52.150;4.466;2024-01-15T07:09:39;54.06;47.22;63.28;;
66274;Laerm;58450;52.150;4.466;2024-01-15T07:12:08;54.90;49.17;63.07;;
66274;Laerm;58450;52.150;4.466;2024-01-15T07:14:35;59.32;47.97;72.06;;
66274;Laerm;58450;52.150;4.466;2024-01-15T07:17:04;53.32;48.47;65.82;;
66274;Laerm;58450;52.150;4.466;2024-01-15T07:19:32;54.52;48.89;63.74;;
66274;Laerm;58450;52.150;4.466;2024-01-15T07:22:00;55.82;48.53;72.25;;
66274;Laerm;58450;52.150;4.466;2024-01-15T07:24:27;58.56;50.22;70.70;;
66274;Laerm;58450;52.150;4.466;2024-01-15T07:26:54;55.72;49.27;75.39;;
66274;Laerm;58450;52.150;4.466;2024-01-15T07:29:22;56.00;50.44;70.12;;
66274;Laerm;58450;52.150;4.466;2024-01-15T07:31:50;55.72;50.86;66.73;;
66274;Laerm;58450;52.150;4.466;2024-01-15T07:34:19;57.06;50.87;70.71;;
66274;Laerm;58450;52.150;4.466;2024-01-15T07:36:48;58.82;50.94;67.89;;
66274;Laerm;58450;52.150;4.466;2024-01-15T07:39:15;58.05;52.38;71.28;;
66274;Laerm;58450;52.150;4.466;2024-01-15T07:41:43;56.11;50.72;69.15;;
66274;Laerm;58450;52.150;4.466;2024-01-15T07:44:10;60.14;51.31;74.39;;
66274;Laerm;58450;52.150;4.466;2024-01-15T07:46:37;56.14;49.94;71.35;;
66274;Laerm;58450;52.150;4.466;2024-01-15T07:49:05;58.56;51.58;73.78;;
66274;Laerm;58450;52.150;4.466;2024-01-15T07:51:34;56.74;50.10;71.38;;
66274;Laerm;58450;52.150;4.466;2024-01-15T07:54:01;60.00;50.55;71.86;;
66274;Laerm;58450;52.150;4.466;2024-01-15T07:56:29;57.60;51.66;71.05;;
66274;Laerm;58450;52.150;4.466;2024-01-15T07:58:56;56.21;50.12;70.43;;
66274;Laerm;58450;52.150;4.466;2024-01-15T08:01:24;60.31;50.30;76.10;;
66274;Laerm;58450;52.150;4.466;2024-01-15T08:03:51;56.46;50.17;74.56;;
66274;Laerm;58450;52.150;4.466;2024-01-15T08:06:20;58.36;49.30;75.18;;
66274;Laerm;58450;52.150;4.466;2024-01-15T08:08:49;57.27;49.67;69.38;;
66274;Laerm;58450;52.150;4.466;2024-01-15T08:11:17;55.22;49.41;70.47;;
66274;Laerm;58450;52.150;4.466;2024-01-15T08:13:45;57.89;49.41;74.11;;
66274;Laerm;58450;52.150;4.466;2024-01-15T08:16:12;58.41;49.42;74.51;;
66274;Laerm;58450;52.150;4.466;2024-01-15T08:18:41;57.24;49.14;79.28;;
66274;Laerm;58450;52.150;4.466;2024-01-15T08:21:10;56.71;48.84;75.25;;
66274;Laerm;58450;52.150;4.466;2024-01-15T08:23:37;57.01;48.61;70.33;;
66274;Laerm;58450;52.150;4.466;2024-01-15T08:26:06;56.34;49.08;68.68;;
66274;Laerm;58450;52.150;4.466;2024-01-15T08:28:33;54.69;46.71;68.12;;
66274;Laerm;58450;52.150;4.466;2024-01-15T08:31:01;54.52;46.76;70.49;;
66274;Laerm;58450;52.150;4.466;2024-01-15T08:33:29;55.67;49.32;68.89;;
66274;Laerm;58450;52.150;4.466;2024-01-15T08:35:56;59.01;49.30;71.41;;
66274;Laerm;58450;52.150;4.466;2024-01-15T08:38:24;57.15;49.56;71.17;;
66274;Laerm;58450;52.150;4.466;2024-01-15T08:40:51;57.92;49.15;67.45;;
66274;Laerm;58450;52.150;4.466;2024-01-15T08:43:21;54.75;48.53;69.05;;
66274;Laerm;58450;52.150;4.466;2024-01-15T08:45:48;59.09;48.84;73.41;;
66274;Laerm;58450;52.150;4.466;2024-01-15T08:48:17;54.25;48.78;66.55;;
66274;Laerm;58450;52.150;4.466;2024-01-15T08:50:45;59.76;50.08;72.72;;
66274;Laerm;58450;52.150;4.466;2024-01-15T08:53:13;55.23;49.47;67.67;;
66274;Laerm;58450;52.150;4.466;2024-01-15T08:55:40;58.22;48.16;72.91;;
66274;Laerm;58450;52.150;4.466;2024-01-15T08:58:10;54.77;47.88;65.99;;
66274;Laerm;58450;52.150;4.466;2024-01-15T09:00:38;62.07;48.70;77.47;;
66274;Laerm;58450;52.150;4.466;2024-01-15T09:03:05;59.53;52.50;67.64;;
66274;Laerm;58450;52.150;4.466;2024-01-15T09:05:34;60.37;53.39;74.47;;
66274;Laerm;58450;52.150;4.466;2024-01-15T09:08:01;60.48;54.33;73.14;;
66274;Laerm;58450;52.150;4.466;2024-01-15T09:10:29;55.81;47.15;66.41;;
66274;Laerm;58450;52.150;4.466;2024-01-15T09:12:56;54.95;49.21;68.46;;
66274;Laerm;58450;52.150;4.466;2024-01-15T09:15:23;58.52;49.84;72.82;;
66274;Laerm;58450;52.150;4.466;2024-01-15T09:17:52;59.09;51.05;72.47;;
66274;Laerm;58450;52.150;4.466;2024-01-15T09:20:20;62.35;50.94;76.27;;
66274;Laerm;58450;52.150;4.466;2024-01-15T09:22:47;57.11;49.24;71.88;;
66274;Laerm;58450;52.150;4.466;2024-01-15T09:25:15;55.94;48.42;71.25;;
66274;Laerm;58450;52.150;4.466;2024-01-15T09:27:42;57.41;48.91;72.66;;
66274;Laerm;58450;52.150;4.466;2024-01-15T09:30:11;58.18;46.60;78.18;;
66274;Laerm;58450;52.150;4.466;2024-01-15T09:32:38;52.59;47.61;63.67;;
66274;Laerm;58450;52.150;4.466;2024-01-15T09:35:08;52.97;46.38;64.96;;
66274;Laerm;58450;52.150;4.466;2024-01-15T09:37:36;57.18;48.61;69.32;;
66274;Laerm;58450;52.150;4.466;2024-01-15T09:40:06;54.15;47.52;70.15;;
66274;Laerm;58450;52.150;4.466;2024-01-15T09:42:36;62.49;55.74;69.33;;
66274;Laerm;58450;52.150;4.466;2024-01-15T09:45:04;60.64;55.42;69.99;;
66274;Laerm;58450;52.150;4.466;2024-01-15T09:47:32;57.39;45.64;74.92;;
66274;Laerm;58450;52.150;4.466;2024-01-15T09:50:00;53.45;47.29;68.54;;
66274;Laerm;58450;52.150;4.466;2024-01-15T09:52:31;55.32;46.26;69.11;;
66274;Laerm;58450;52.150;4.466;2024-01-15T09:55:01;56.69;46.62;69.06;;
66274;Laerm;58450;52.150;4.466;2024-01-15T09:57:29;53.09;45.94;64.65;;
66274;Laerm;58450;52.150;4.466;2024-01-15T09:59:59;56.03;49.18;67.80;;
66274;Laerm;58450;52.150;4.466;2024-01-15T10:02:31;57.20;50.37;71.65;;
66274;Laerm;58450;52.150;4.466;2024-01-15T10:04:58;55.01;48.63;71.32;;
66274;Laerm;58450;52.150;4.466;2024-01-15T10:07:27;57.84;50.82;73.22;;
66274;Laerm;58450;52.150;4.466;2024-01-15T10:09:57;57.89;48.92;77.96;;
66274;Laerm;58450;52.150;4.466;2024-01-15T10:12:25;56.31;49.23;73.65;;
66274;Laerm;58450;52.150;4.466;2024-01-15T10:14:53;58.01;48.70;72.67;;
66274;Laerm;58450;52.150;4.466;2024-01-15T10:17:21;57.74;49.45;71.41;;
66274;Laerm;58450;52.150;4.466;2024-01-15T10:19:48;56.84;48.07;72.16;;
66274;Laerm;58450;52.150;4.466;2024-01-15T10:22:16;54.70;47.35;67.31;;
66274;Laerm;58450;52.150;4.466;2024-01-15T10:24:44;56.83;48.54;74.96;;
66274;Laerm;58450;52.150;4.466;2024-01-15T10:27:14;53.85;48.57;63.32;;
66274;Laerm;58450;52.150;4.466;2024-01-15T10:29:42;56.16;47.73;68.38;;
66274;Laerm;58450;52.150;4.466;2024-01-15T10:32:11;55.20;47.53;67.34;;
66274;Laerm;58450;52.150;4.466;2024-01-15T10:34:39;53.99;47.95;64.40;;
66274;Laerm;58450;52.150;4.466;2024-01-15T10:37:08;55.37;48.78;69.72;;
66274;Laerm;58450;52.150;4.466;2024-01-15T10:39:36;55.44;48.93;73.28;;
66274;Laerm;58450;52.150;4.466;2024-01-15T10:42:05;54.20;47.87;67.59;;
66274;Laerm;58450;52.150;4.466;2024-01-15T10:44:34;57.52;49.55;73.33;;
66274;Laerm;58450;52.150;4.466;2024-01-15T10:47:02;57.60;49.03;73.14;;
66274;Laerm;58450;52.150;4.466;2024-01-15T10:49:30;58.36;49.83;74.18;;
66274;Laerm;58450;52.150;4.466;2024-01-15T10:51:57;55.67;49.69;64.11;;
66274;Laerm;58450;52.150;4.466;2024-01-15T10:54:27;58.90;48.82;74.69;;
66274;Laerm;58450;52.150;4.466;2024-01-15T10:56:56;52.33;48.10;66.39;;
66274;Laerm;58450;52.150;4.466;2024-01-15T10:59:24;55.26;48.26;71.55;;
66274;Laerm;58450;52.150;4.466;2024-01-15T11:01:53;51.50;45.96;65.39;;
66274;Laerm;58450;52.150;4.466;2024-01-15T11:04:23;53.66;46.27;69.00;;
66274;Laerm;58450;52.150;4.466;2024-01-15T11:06:53;55.26;47.34;71.29;;
66274;Laerm;58450;52.150;4.466;2024-01-15T11:09:21;59.27;48.77;74.90;;
66274;Laerm;58450;52.150;4.466;2024-01-15T11:12:06;54.53;47.56;67.69;;
66274;Laerm;58450;52.150;4.466;2024-01-15T11:14:34;56.78;48.81;67.91;;
